Glenmora, Louisiana
Current Conditions -  °F | °C
As of 10:55 AM on Thursday 30 Oct 2014 (Local Time) from KACP Reporting Station
Clear Clear  
Wind Chill: 67°   Ceiling: Unl
Heat Index: 67°   Visibility: 10mi
Dew Point: 48°   Wind: 6mph
Humidity: 52%   Direction: 50°NE
Pressure: 30.17"   Gusts: NA
Location:  30.98°N, 92.59°W
Report Text: KACP 301555Z AUTO 05005KT 10SM CLR 19/09 A3017 RMK AO2 T01920090
Loading
Personal Weather Stations






























Interactive Weather Map
Tropical Storm Tracking
New forecast layout! Learn more

10-Day Weather Forecast

Advertisements
Track Severe Weather on mobile